Date,TemperatureHighF,TemperatureAvgF,TemperatureLowF,DewpointHighF,DewpointAvgF,DewpointLowF,HumidityHigh,HumidityAvg,HumidityLow,PressureMaxIn,PressureMinIn,WindSpeedMaxMPH,WindSpeedAvgMPH,GustSpeedMaxMPH,PrecipitationSumIn
2013-4-1,75.4,60.9,46.9,56.8,44.6,35.6,99,62,26,29.43,29.31,12,3,16,0.02
2013-4-2,68.4,54.1,36.7,36.7,27.3,16.3,85,41,16,29.63,29.43,13,3,15,0.00
2013-4-3,63.7,51.7,38.5,33.7,22.6,15.2,56,34,18,29.75,29.60,8,2,11,0.00
2013-4-4,46.6,40.8,35.2,38.4,30.9,15.6,99,72,30,29.76,29.45,11,3,17,0.79
2013-4-5,71.8,51.6,36.3,47.7,39.6,25.3,99,70,22,29.52,29.38,8,3,13,0.01
2013-4-6,73.0,56.2,39.0,41.6,36.8,30.2,88,53,22,29.71,29.51,10,2,10,0.00
2013-4-7,73.4,59.6,46.0,51.6,44.7,38.7,82,60,36,29.72,29.57,12,4,13,0.00
2013-4-8,80.6,65.8,52.3,59.2,52.6,47.3,96,65,38,29.64,29.52,14,3,21,0.00
2013-4-9,88.0,71.2,55.4,60.8,55.5,50.7,91,60,36,29.67,29.55,14,3,15,0.00
2013-4-10,89.4,73.9,59.4,61.8,58.2,54.9,88,60,36,29.59,29.43,14,3,17,0.00
2013-4-11,83.3,70.9,61.7,67.9,61.1,56.8,99,73,46,29.47,29.23,15,4,17,0.30
2013-4-12,84.9,71.4,60.3,68.1,57.1,35.8,99,66,29,29.31,29.12,15,6,17,0.91
2013-4-13,80.4,64.7,44.4,45.3,39.1,28.5,85,43,18,29.51,29.30,10,2,11,0.00
2013-4-14,79.3,63.3,44.4,55.6,43.3,35.0,82,51,27,29.58,29.47,10,2,13,0.00
2013-4-15,68.0,59.3,55.6,62.3,57.6,51.6,99,94,69,29.68,29.47,6,2,10,0.21
2013-4-16,81.1,66.7,55.9,64.3,58.9,55.7,99,79,47,29.78,29.65,10,2,11,0.00
2013-4-17,82.4,70.1,58.1,64.0,60.2,55.8,97,74,42,29.72,29.59,7,1,7,0.00
2013-4-18,81.0,70.3,62.1,64.6,61.2,57.8,95,75,47,29.65,29.47,14,3,14,0.00
2013-4-19,77.5,67.4,56.3,67.5,62.7,52.5,95,85,65,29.47,29.22,20,6,20,0.22
2013-4-20,69.8,55.5,42.6,50.9,33.8,23.7,82,48,19,29.73,29.38,8,3,8,0.00
2013-4-21,68.7,53.1,39.9,44.3,38.7,33.1,85,60,36,29.93,29.74,8,2,8,0.00
2013-4-22,69.8,53.8,41.4,42.1,34.8,24.8,84,54,19,29.91,29.70,9,2,14,0.00
2013-4-23,73.8,58.7,46.4,53.8,46.3,36.4,85,65,42,29.74,29.57,6,2,8,0.00
2013-4-24,75.4,62.6,49.5,58.2,54.7,49.2,99,77,53,29.61,29.46,14,4,21,0.00
2013-4-25,77.4,61.6,50.7,58.4,41.0,28.2,90,51,17,29.76,29.51,8,2,10,0.00
2013-4-26,76.8,59.9,44.8,49.7,37.7,30.1,72,48,19,29.91,29.75,8,1,8,0.00
2013-4-27,63.9,58.2,54.9,57.6,52.7,47.9,99,83,67,29.83,29.73,4,1,5,0.06
2013-4-28,56.1,55.3,54.5,55.9,54.8,53.7,99,98,97,29.73,29.51,4,1,5,1.74
2013-4-29,77.4,61.7,55.2,64.0,58.5,54.4,99,90,57,29.54,29.42,5,1,6,0.11
2013-4-30,76.8,63.1,56.7,63.2,59.1,56.3,99,88,59,29.65,29.47,5,1,5,0.00